Time;durP1;ratioP1;P1;durP2;ratioP2;P2;SDS_P1;SDS_P2;PMS_P1;PMS_P2;Temp;Humidity;BMP_temperature;BMP_pressure;BME280_temperature;BME280_humidity;BME280_pressure;Samples;Min_cycle;Max_cycle;Signal;HPM_P1;HPM_P2
2023/01/03 00:01:27;;;;;;;13.23;4.35;;;3.00;99.90;;;;;;6373030;22;20045;-86
2023/01/03 00:03:54;;;;;;;11.63;4.10;;;3.60;99.90;;;;;;6372394;22;20460;-87
2023/01/03 00:06:23;;;;;;;14.93;4.85;;;3.00;99.90;;;;;;6370780;22;20349;-86
2023/01/03 00:08:49;;;;;;;14.15;4.47;;;3.90;99.90;;;;;;6372531;22;20014;-86
2023/01/03 00:11:18;;;;;;;10.73;4.05;;;3.50;99.90;;;;;;6372897;22;20521;-86
2023/01/03 00:13:44;;;;;;;11.40;3.50;;;3.10;99.90;;;;;;6396894;22;20017;-86
2023/01/03 00:16:15;;;;;;;12.32;3.47;;;3.60;99.90;;;;;;6399543;22;20113;-87
2023/01/03 00:18:41;;;;;;;9.18;3.38;;;3.10;99.90;;;;;;6372880;22;20017;-87
2023/01/03 00:21:07;;;;;;;8.50;3.35;;;3.60;99.90;;;;;;6372041;22;20016;-87
2023/01/03 00:23:32;;;;;;;14.90;3.33;;;3.20;99.90;;;;;;6399065;22;20005;-87
2023/01/03 00:25:58;;;;;;;10.65;3.40;;;3.60;99.90;;;;;;6399085;22;20828;-87
2023/01/03 00:28:24;;;;;;;13.02;2.92;;;3.80;99.90;;;;;;6370448;22;20043;-87
2023/01/03 00:30:49;;;;;;;13.38;2.78;;;3.20;99.90;;;;;;6372639;22;20075;-87
2023/01/03 00:33:15;;;;;;;18.33;3.38;;;3.20;99.90;;;;;;6398459;22;20433;-86
2023/01/03 00:35:40;;;;;;;9.10;2.13;;;3.20;99.90;;;;;;6399285;22;20441;-87
2023/01/03 00:38:06;;;;;;;11.93;2.45;;;3.30;99.90;;;;;;6398649;22;20457;-86
2023/01/03 00:40:32;;;;;;;9.95;2.28;;;4.50;99.90;;;;;;6398548;22;20318;-87
2023/01/03 00:45:41;;;;;;;14.15;3.25;;;3.70;99.90;;;;;;6399340;22;20573;-87
2023/01/03 00:48:07;;;;;;;14.52;2.40;;;3.60;99.90;;;;;;6398496;22;20065;-87
2023/01/03 00:50:36;;;;;;;10.02;2.70;;;4.10;99.90;;;;;;6399179;22;20097;-87
2023/01/03 00:53:01;;;;;;;12.23;2.75;;;3.60;99.90;;;;;;6372180;22;20024;-86
2023/01/03 00:55:27;;;;;;;12.52;1.90;;;3.60;99.90;;;;;;6398095;22;20009;-86
2023/01/03 00:57:53;;;;;;;10.77;1.90;;;4.00;99.90;;;;;;6371101;22;20013;-86
2023/01/03 01:00:18;;;;;;;11.10;2.17;;;3.70;99.90;;;;;;6399467;22;20058;-86
2023/01/03 01:02:44;;;;;;;14.68;2.70;;;3.70;99.90;;;;;;6370881;22;20023;-86
2023/01/03 01:05:20;;;;;;;9.40;1.80;;;4.10;99.90;;;;;;6373733;22;20020;-87
2023/01/03 01:07:46;;;;;;;15.00;2.20;;;3.90;99.90;;;;;;6398279;22;20018;-86
2023/01/03 01:10:12;;;;;;;15.13;3.22;;;4.50;99.90;;;;;;6398429;22;20016;-87
2023/01/03 01:12:38;;;;;;;8.07;2.55;;;3.90;99.90;;;;;;6371080;22;20025;-86
2023/01/03 01:15:05;;;;;;;9.40;2.03;;;4.70;99.90;;;;;;6398542;22;20441;-86
2023/01/03 01:17:30;;;;;;;14.88;2.20;;;4.00;99.90;;;;;;6371050;22;20062;-86
2023/01/03 01:19:56;;;;;;;11.25;1.77;;;4.30;99.90;;;;;;6371904;22;20036;-87
2023/01/03 01:22:22;;;;;;;10.32;2.55;;;4.60;99.90;;;;;;6372024;22;20058;-86
2023/01/03 01:24:48;;;;;;;7.82;1.50;;;4.10;99.90;;;;;;6398357;22;20062;-86
2023/01/03 01:27:14;;;;;;;8.57;1.73;;;4.20;99.90;;;;;;6371543;22;20028;-86
2023/01/03 01:29:39;;;;;;;10.25;1.95;;;4.40;99.90;;;;;;6397547;22;20014;-86
2023/01/03 01:32:05;;;;;;;9.65;2.15;;;4.10;99.90;;;;;;6371563;22;20496;-86
2023/01/03 01:34:32;;;;;;;10.15;2.80;;;4.10;99.90;;;;;;6372540;22;20014;-86
2023/01/03 01:36:57;;;;;;;12.75;2.60;;;4.60;99.90;;;;;;6396722;22;20333;-86
2023/01/03 01:39:25;;;;;;;12.77;2.42;;;4.20;99.90;;;;;;6372158;22;20211;-87
2023/01/03 01:44:51;;;;;;;8.93;2.22;;;4.70;99.90;;;;;;6396967;22;20394;-87
2023/01/03 01:47:23;;;;;;;11.73;2.50;;;4.50;99.90;;;;;;6370726;22;20021;-86
2023/01/03 01:50:02;;;;;;;9.30;2.42;;;4.90;99.90;;;;;;6371280;22;20018;-86
2023/01/03 01:52:31;;;;;;;11.35;2.03;;;5.00;99.90;;;;;;6371153;22;20017;-88
2023/01/03 01:54:58;;;;;;;12.57;2.92;;;4.50;99.90;;;;;;6397762;22;20010;-87
2023/01/03 01:57:25;;;;;;;8.30;2.22;;;5.10;99.90;;;;;;6371887;22;20088;-87
2023/01/03 01:59:51;;;;;;;11.02;3.22;;;4.90;99.90;;;;;;6396589;22;20024;-86
2023/01/03 02:02:20;;;;;;;17.00;5.38;;;5.10;99.90;;;;;;6372256;22;20017;-87
2023/01/03 02:04:49;;;;;;;9.60;3.22;;;4.20;99.90;;;;;;6370360;22;20353;-86
2023/01/03 02:07:17;;;;;;;9.57;3.42;;;5.00;99.90;;;;;;6371535;22;20076;-86
2023/01/03 02:09:44;;;;;;;10.50;2.50;;;5.10;99.90;;;;;;6371535;22;20501;-85
2023/01/03 02:15:31;;;;;;;8.30;2.70;;;4.20;99.90;;;;;;6398361;22;20028;-86
2023/01/03 02:18:11;;;;;;;14.73;3.58;;;4.90;99.90;;;;;;6371081;22;20020;-86
2023/01/03 02:21:14;;;;;;;11.43;3.33;;;4.10;99.90;;;;;;6370889;22;20098;-86
2023/01/03 02:23:51;;;;;;;15.70;3.17;;;4.00;99.90;;;;;;6347570;22;20021;-86
2023/01/03 02:26:43;;;;;;;14.60;3.80;;;4.00;99.90;;;;;;6400202;22;20306;-86
2023/01/03 02:29:18;;;;;;;12.00;3.92;;;4.00;99.90;;;;;;6373491;22;20013;-86
2023/01/03 02:31:59;;;;;;;16.25;4.63;;;4.00;99.90;;;;;;6373037;22;20049;-86
2023/01/03 02:34:38;;;;;;;13.68;5.50;;;4.00;99.90;;;;;;6400087;22;20017;-86
2023/01/03 02:37:13;;;;;;;15.85;6.85;;;3.90;99.90;;;;;;6373211;22;20018;-86
2023/01/03 02:39:57;;;;;;;15.35;7.00;;;3.90;99.90;;;;;;6374230;22;20059;-86
2023/01/03 02:45:26;;;;;;;14.90;6.90;;;4.60;99.90;;;;;;6400708;22;20021;-85
2023/01/03 02:48:00;;;;;;;17.02;8.20;;;3.90;99.90;;;;;;6398964;22;20088;-86
2023/01/03 02:50:34;;;;;;;16.08;8.95;;;3.90;99.90;;;;;;6400761;22;20059;-86
2023/01/03 02:53:04;;;;;;;12.48;6.43;;;3.90;99.90;;;;;;6372947;22;20088;-86
2023/01/03 02:55:33;;;;;;;14.48;5.85;;;3.80;99.90;;;;;;6373374;22;20090;-86
2023/01/03 02:58:08;;;;;;;11.77;4.07;;;3.90;99.90;;;;;;6398201;22;20010;-86
2023/01/03 03:00:41;;;;;;;11.77;4.22;;;3.80;99.90;;;;;;6373398;22;20480;-86
2023/01/03 03:03:15;;;;;;;10.27;3.60;;;3.70;99.90;;;;;;6372792;22;20195;-86
2023/01/03 03:05:51;;;;;;;17.25;3.60;;;4.20;99.90;;;;;;6400479;22;20363;-86
2023/01/03 03:08:17;;;;;;;15.13;3.90;;;3.50;99.90;;;;;;6398607;22;20021;-85
2023/01/03 03:13:42;;;;;;;11.85;3.25;;;4.00;99.90;;;;;;6399290;22;20021;-86
2023/01/03 03:24:48;;;;;;;10.88;3.30;;;3.40;99.90;;;;;;6399746;22;20034;-86
2023/01/03 03:25:05;;;;;;;13.13;3.28;;;2.90;99.90;;;;;;6399049;22;20467;-86
2023/01/03 03:30:19;;;;;;;12.35;3.47;;;3.70;99.90;;;;;;6398861;22;20017;-86
2023/01/03 03:32:49;;;;;;;15.20;3.80;;;2.70;99.90;;;;;;6398757;22;20051;-86
2023/01/03 03:35:19;;;;;;;10.82;3.78;;;3.20;99.90;;;;;;6373035;22;20097;-86
2023/01/03 03:37:47;;;;;;;10.57;3.70;;;2.50;99.90;;;;;;6371622;22;20017;-86
2023/01/03 03:46:01;;;;;;;18.25;12.40;;;2.50;99.90;;;;;;6399513;22;20013;-86
2023/01/03 03:49:36;;;;;;;18.48;10.10;;;3.20;99.90;;;;;;6373172;22;20309;-86
2023/01/03 03:51:20;;;;;;;16.48;5.32;;;2.90;99.90;;;;;;6399027;22;20021;-86
2023/01/03 03:53:47;;;;;;;10.55;4.07;;;3.30;99.90;;;;;;6372002;22;20078;-86
2023/01/03 03:56:16;;;;;;;11.93;3.75;;;2.80;99.90;;;;;;6373731;22;20017;-86
2023/01/03 03:58:47;;;;;;;8.93;3.80;;;3.00;99.90;;;;;;6370657;22;20066;-86
2023/01/03 04:01:18;;;;;;;9.43;3.67;;;2.30;99.90;;;;;;6373727;22;20013;-86
2023/01/03 04:03:44;;;;;;;11.95;3.95;;;2.20;99.90;;;;;;6372099;22;20010;-85
2023/01/03 04:06:18;;;;;;;9.82;3.90;;;2.20;99.90;;;;;;6399123;22;20341;-86
2023/01/03 04:08:45;;;;;;;11.02;3.95;;;2.20;99.90;;;;;;6372099;22;20033;-85
2023/01/03 04:11:11;;;;;;;16.95;4.53;;;2.70;99.90;;;;;;6372498;22;20013;-86
2023/01/03 04:13:38;;;;;;;9.90;4.13;;;2.20;99.90;;;;;;6398173;22;20009;-86
2023/01/03 04:16:05;;;;;;;13.95;4.32;;;2.70;99.90;;;;;;6372642;22;20044;-86
2023/01/03 04:18:31;;;;;;;11.73;4.80;;;2.10;99.90;;;;;;6398020;22;20427;-85
2023/01/03 04:20:57;;;;;;;10.25;4.50;;;3.00;99.90;;;;;;6372741;22;20376;-85
2023/01/03 04:23:23;;;;;;;11.05;4.38;;;2.50;99.90;;;;;;6399215;22;20040;-85
2023/01/03 04:25:49;;;;;;;10.90;4.78;;;2.00;99.90;;;;;;6371516;22;20017;-86
2023/01/03 04:28:16;;;;;;;13.75;5.47;;;2.00;99.90;;;;;;6372550;22;20437;-85
2023/01/03 04:30:42;;;;;;;16.25;5.63;;;2.50;99.90;;;;;;6399012;22;20010;-85
2023/01/03 04:33:08;;;;;;;18.08;5.47;;;2.20;99.90;;;;;;6371657;22;20105;-86
2023/01/03 04:35:34;;;;;;;15.85;5.47;;;2.80;99.90;;;;;;6372797;22;20397;-86
2023/01/03 04:38:01;;;;;;;15.70;6.28;;;2.10;99.90;;;;;;6372069;22;20073;-86
2023/01/03 04:40:27;;;;;;;11.30;6.35;;;2.10;99.90;;;;;;6372151;22;20051;-86
2023/01/03 04:45:39;;;;;;;20.20;8.43;;;2.50;99.90;;;;;;6399069;22;20059;-86
2023/01/03 04:48:05;;;;;;;18.00;8.93;;;2.40;99.90;;;;;;6371295;22;20021;-86
2023/01/03 04:50:31;;;;;;;19.33;8.98;;;2.30;99.90;;;;;;6398942;22;20101;-85
2023/01/03 04:52:57;;;;;;;19.45;9.07;;;3.20;99.90;;;;;;6371955;22;20017;-86
2023/01/03 04:55:23;;;;;;;16.67;9.05;;;2.90;99.90;;;;;;6398337;22;20016;-86
2023/01/03 04:57:49;;;;;;;24.15;10.40;;;2.40;99.90;;;;;;6397802;22;20017;-86
2023/01/03 05:00:15;;;;;;;23.67;10.65;;;3.00;99.90;;;;;;6372877;22;20485;-86
2023/01/03 05:02:41;;;;;;;20.85;10.18;;;2.50;99.90;;;;;;6397830;22;20448;-86
2023/01/03 05:05:07;;;;;;;19.48;10.65;;;2.60;99.90;;;;;;6398868;22;20020;-86
2023/01/03 05:07:33;;;;;;;26.50;12.57;;;2.60;99.90;;;;;;6397603;22;20013;-85
2023/01/03 05:09:59;;;;;;;23.75;10.98;;;2.90;99.90;;;;;;6372165;22;20345;-86
2023/01/03 05:12:25;;;;;;;25.73;11.65;;;2.80;99.90;;;;;;6398276;22;20018;-85
2023/01/03 05:14:51;;;;;;;22.60;12.02;;;2.70;99.90;;;;;;6370425;22;20049;-86
2023/01/03 05:17:19;;;;;;;25.02;12.77;;;3.50;99.90;;;;;;6399023;22;20013;-85
2023/01/03 05:27:59;;;;;;;25.90;13.13;;;3.40;99.90;;;;;;6396690;22;20018;-86
2023/01/03 05:30:25;;;;;;;28.75;13.68;;;2.90;99.90;;;;;;6371670;22;20043;-86
2023/01/03 05:32:51;;;;;;;28.13;13.90;;;3.70;99.90;;;;;;6370924;22;20010;-86
2023/01/03 05:35:17;;;;;;;25.90;15.02;;;3.90;99.90;;;;;;6371889;22;20088;-86
2023/01/03 05:37:43;;;;;;;28.05;14.57;;;3.20;99.90;;;;;;6370641;22;20013;-86
2023/01/03 05:40:09;;;;;;;27.20;14.00;;;3.10;99.90;;;;;;6372437;22;20018;-87
2023/01/03 05:42:35;;;;;;;25.73;14.43;;;3.00;99.90;;;;;;6397892;22;20433;-86
2023/01/03 05:45:00;;;;;;;28.60;15.20;;;3.10;99.90;;;;;;6397712;22;20028;-87
2023/01/03 05:47:26;;;;;;;30.13;15.15;;;3.60;99.90;;;;;;6372321;22;20010;-86
2023/01/03 05:49:51;;;;;;;33.88;16.40;;;3.60;99.90;;;;;;6370505;22;20017;-85
2023/01/03 05:52:17;;;;;;;29.20;15.48;;;3.60;99.90;;;;;;6372594;22;20006;-86
2023/01/03 05:54:43;;;;;;;30.23;15.45;;;3.60;99.90;;;;;;6372057;22;20100;-86
2023/01/03 05:57:09;;;;;;;31.60;17.13;;;3.90;99.90;;;;;;6369627;22;20009;-86
2023/01/03 05:59:34;;;;;;;26.80;15.65;;;3.10;99.90;;;;;;6399270;22;20025;-87
2023/01/03 06:02:00;;;;;;;26.58;13.93;;;3.30;99.90;;;;;;6397405;22;20010;-86
2023/01/03 06:04:26;;;;;;;26.45;13.52;;;4.00;99.90;;;;;;6398152;22;20009;-87
2023/01/03 06:06:51;;;;;;;27.48;14.60;;;4.00;99.90;;;;;;6371281;22;20047;-86
2023/01/03 06:09:17;;;;;;;24.50;13.85;;;3.20;99.90;;;;;;6398300;22;20021;-86
2023/01/03 06:11:43;;;;;;;22.88;14.20;;;3.50;99.90;;;;;;6370646;22;20018;-87
2023/01/03 06:14:09;;;;;;;24.60;14.57;;;4.10;99.90;;;;;;6371474;22;20011;-86
2023/01/03 06:19:19;;;;;;;25.48;14.82;;;3.30;99.90;;;;;;6397843;22;20460;-86
2023/01/03 06:21:44;;;;;;;29.60;15.95;;;3.60;99.90;;;;;;6371654;22;20052;-86
2023/01/03 06:24:10;;;;;;;33.47;16.95;;;3.70;99.90;;;;;;6398315;22;20017;-87
2023/01/03 06:26:36;;;;;;;32.72;16.90;;;2.90;99.90;;;;;;6398064;22;20017;-86
2023/01/03 06:29:03;;;;;;;35.10;17.02;;;2.90;99.90;;;;;;6396840;22;20013;-86
2023/01/03 06:31:28;;;;;;;30.95;17.00;;;2.90;99.90;;;;;;6399090;22;20017;-86
2023/01/03 06:33:54;;;;;;;34.33;17.50;;;3.30;99.90;;;;;;6396465;22;20497;-83
2023/01/03 06:36:21;;;;;;;30.38;18.65;;;3.10;99.90;;;;;;6398179;22;20031;-85
2023/01/03 06:38:47;;;;;;;35.33;18.75;;;3.20;99.90;;;;;;6371194;22;20013;-86
2023/01/03 06:41:14;;;;;;;32.10;18.25;;;3.50;99.90;;;;;;6371037;22;20109;-86
2023/01/03 06:43:41;;;;;;;33.13;18.60;;;3.60;99.90;;;;;;6397584;22;20009;-86
2023/01/03 06:54:40;;;;;;;39.35;19.98;;;3.20;99.90;;;;;;6397182;22;20017;-85
2023/01/03 06:57:06;;;;;;;33.63;19.92;;;3.00;99.90;;;;;;6396620;22;20017;-86
2023/01/03 06:59:32;;;;;;;34.30;19.50;;;2.60;99.90;;;;;;6372320;22;20024;-86
2023/01/03 07:01:57;;;;;;;29.75;18.52;;;3.60;99.90;;;;;;6369615;22;20013;-85
2023/01/03 07:04:24;;;;;;;32.65;19.63;;;2.90;99.90;;;;;;6398609;22;20132;-85
2023/01/03 07:06:50;;;;;;;35.58;20.77;;;2.40;99.90;;;;;;6397263;22;20329;-85
2023/01/03 07:09:16;;;;;;;39.13;20.67;;;2.90;99.90;;;;;;6372858;22;20379;-86
2023/01/03 07:11:42;;;;;;;38.33;20.58;;;2.30;99.90;;;;;;6399907;22;20070;-85
2023/01/03 07:14:09;;;;;;;33.17;20.42;;;2.30;99.90;;;;;;6371315;22;20017;-85
2023/01/03 07:16:38;;;;;;;39.97;20.30;;;2.80;99.90;;;;;;6400564;22;20403;-85
2023/01/03 07:19:05;;;;;;;35.53;21.00;;;2.60;99.90;;;;;;6398969;22;20134;-85
2023/01/03 07:21:33;;;;;;;37.22;21.70;;;2.20;99.90;;;;;;6399580;22;20012;-86
2023/01/03 07:24:01;;;;;;;39.45;20.85;;;2.50;99.90;;;;;;6372296;22;20433;-86
2023/01/03 07:26:29;;;;;;;37.70;20.98;;;2.80;99.90;;;;;;6373970;22;20316;-85
2023/01/03 07:28:55;;;;;;;34.65;19.88;;;2.40;99.90;;;;;;6369748;22;20024;-86
2023/01/03 07:31:21;;;;;;;39.55;22.83;;;2.00;99.90;;;;;;6374070;22;20013;-85
2023/01/03 07:33:47;;;;;;;38.67;21.58;;;2.60;99.90;;;;;;6372729;22;20016;-85
2023/01/03 07:36:14;;;;;;;38.78;20.50;;;2.50;99.90;;;;;;6372131;22;20017;-86
2023/01/03 07:38:42;;;;;;;41.55;22.05;;;1.90;99.90;;;;;;6373568;22;20085;-85
2023/01/03 07:41:09;;;;;;;41.97;22.60;;;2.30;99.90;;;;;;6373067;22;20370;-85
2023/01/03 07:43:36;;;;;;;41.22;21.48;;;1.90;99.90;;;;;;6397917;22;20379;-86
2023/01/03 07:46:08;;;;;;;39.20;21.48;;;1.90;99.90;;;;;;6372611;22;20327;-85
2023/01/03 07:48:35;;;;;;;38.40;21.45;;;2.30;99.90;;;;;;6373349;22;20105;-85
2023/01/03 07:51:02;;;;;;;40.72;21.13;;;2.40;99.90;;;;;;6396810;22;20045;-86
2023/01/03 07:53:28;;;;;;;38.67;20.50;;;1.80;99.90;;;;;;6399779;22;20024;-85
2023/01/03 07:56:02;;;;;;;35.22;19.77;;;1.80;99.90;;;;;;6372619;22;20038;-85
2023/01/03 07:58:27;;;;;;;36.13;20.98;;;2.20;99.90;;;;;;6371654;22;20013;-85
2023/01/03 08:00:53;;;;;;;37.30;20.48;;;1.90;99.90;;;;;;6398839;22;20570;-86
2023/01/03 08:03:19;;;;;;;38.42;20.80;;;2.40;99.90;;;;;;6372120;22;20039;-86
2023/01/03 08:05:44;;;;;;;42.22;20.70;;;2.10;99.90;;;;;;6372667;22;20017;-85
2023/01/03 08:08:10;;;;;;;42.20;21.17;;;2.30;99.90;;;;;;6398900;22;20092;-86
2023/01/03 08:13:20;;;;;;;33.85;19.65;;;2.20;99.90;;;;;;6398529;22;20134;-88
2023/01/03 08:15:51;;;;;;;34.58;19.90;;;2.10;99.90;;;;;;6372082;22;20031;-85
2023/01/03 08:18:21;;;;;;;32.67;19.08;;;1.70;99.90;;;;;;6398508;22;20369;-86
2023/01/03 08:20:47;;;;;;;40.97;20.45;;;1.70;99.90;;;;;;6371600;22;20025;-85
2023/01/03 08:23:13;;;;;;;35.30;19.52;;;1.90;99.90;;;;;;6372952;22;20021;-86
2023/01/03 08:25:39;;;;;;;37.35;20.50;;;2.80;99.90;;;;;;6371438;22;20445;-85
2023/01/03 08:28:06;;;;;;;33.13;18.50;;;2.10;99.90;;;;;;6397537;22;20025;-86
2023/01/03 08:30:36;;;;;;;28.17;17.60;;;1.80;99.90;;;;;;6399822;22;20009;-86
2023/01/03 08:33:02;;;;;;;30.50;19.15;;;2.30;99.90;;;;;;6370985;22;20013;-84
2023/01/03 08:35:32;;;;;;;32.05;18.45;;;1.90;99.90;;;;;;6399573;22;20490;-86
2023/01/03 08:38:00;;;;;;;35.58;18.95;;;2.60;99.90;;;;;;6371957;22;20014;-85
2023/01/03 08:40:26;;;;;;;32.00;18.80;;;2.70;99.90;;;;;;6373867;22;20024;-87
2023/01/03 08:42:52;;;;;;;30.05;18.35;;;2.00;99.90;;;;;;6370559;22;20014;-86
2023/01/03 08:45:18;;;;;;;32.83;18.23;;;2.70;99.90;;;;;;6399210;22;20495;-86
2023/01/03 08:47:45;;;;;;;30.42;18.52;;;2.80;99.90;;;;;;6370385;22;20014;-85
2023/01/03 08:50:11;;;;;;;36.67;19.08;;;2.90;99.90;;;;;;6372801;22;20017;-86
2023/01/03 08:52:37;;;;;;;35.47;19.45;;;1.90;99.90;;;;;;6398317;22;20089;-87
2023/01/03 08:55:03;;;;;;;32.78;18.13;;;2.70;99.90;;;;;;6371798;22;20021;-86
2023/01/03 08:57:29;;;;;;;32.40;16.92;;;1.90;99.90;;;;;;6398176;22;20575;-85
2023/01/03 08:59:55;;;;;;;38.55;20.58;;;1.90;99.90;;;;;;6397018;22;20074;-86
2023/01/03 09:02:20;;;;;;;31.90;18.33;;;2.90;99.90;;;;;;6372631;22;20066;-87
2023/01/03 09:04:46;;;;;;;33.03;20.38;;;2.10;99.90;;;;;;6371910;22;20013;-86
2023/01/03 09:07:12;;;;;;;30.25;18.92;;;2.00;99.90;;;;;;6371005;22;20574;-86
2023/01/03 09:09:37;;;;;;;32.88;20.58;;;3.10;99.90;;;;;;6372858;22;20018;-86
2023/01/03 09:12:03;;;;;;;32.90;20.10;;;2.00;99.90;;;;;;6370505;22;20017;-86
2023/01/03 09:14:29;;;;;;;32.00;19.77;;;2.00;99.90;;;;;;6398661;22;20500;-87
2023/01/03 09:16:55;;;;;;;29.25;18.60;;;2.70;99.90;;;;;;6371912;22;20013;-86
2023/01/03 09:19:21;;;;;;;31.23;19.98;;;2.10;99.90;;;;;;6372520;22;20097;-86
2023/01/03 09:21:47;;;;;;;29.45;20.10;;;2.10;99.90;;;;;;6371434;22;20017;-86
2023/01/03 09:24:13;;;;;;;31.10;19.42;;;2.60;99.90;;;;;;6398934;22;20132;-86
2023/01/03 09:26:38;;;;;;;32.45;19.90;;;2.10;99.90;;;;;;6399249;22;20010;-85
2023/01/03 09:29:04;;;;;;;35.95;22.30;;;2.80;99.90;;;;;;6370226;22;20023;-86
2023/01/03 09:31:33;;;;;;;35.80;21.70;;;2.80;99.90;;;;;;6372068;22;20009;-86
2023/01/03 09:34:01;;;;;;;33.25;20.15;;;2.10;99.90;;;;;;6371107;22;20330;-87
2023/01/03 09:36:27;;;;;;;29.85;19.92;;;2.10;99.90;;;;;;6371190;22;20013;-86
2023/01/03 09:38:53;;;;;;;32.17;20.60;;;2.50;99.90;;;;;;6371309;22;20025;-86
2023/01/03 09:41:22;;;;;;;35.67;20.05;;;2.10;99.90;;;;;;6398467;22;20340;-86
2023/01/03 09:43:51;;;;;;;39.63;18.70;;;2.00;99.90;;;;;;6396219;22;20013;-87
2023/01/03 09:46:21;;;;;;;45.40;19.70;;;2.30;99.90;;;;;;6372020;22;20052;-88
2023/01/03 09:48:47;;;;;;;51.05;20.08;;;2.00;99.90;;;;;;6370627;22;20009;-86
2023/01/03 10:05:58;;;;;;;41.30;18.70;;;1.90;99.90;;;;;;6397799;22;20028;-86
2023/01/03 10:08:30;;;;;;;41.25;20.52;;;1.90;99.90;;;;;;6397783;22;20445;-86
2023/01/03 10:11:02;;;;;;;54.40;18.83;;;1.90;99.90;;;;;;6370554;22;20078;-86
2023/01/03 10:13:45;;;;;;;57.22;19.10;;;1.90;99.90;;;;;;6397483;22;20009;-86
2023/01/03 10:16:40;;;;;;;39.78;19.10;;;2.00;99.90;;;;;;6372368;22;20056;-86
2023/01/03 10:19:19;;;;;;;60.53;20.25;;;1.90;99.90;;;;;;6369982;22;20014;-85
2023/01/03 10:21:59;;;;;;;57.75;20.52;;;2.10;99.90;;;;;;6398283;22;20057;-86
2023/01/03 10:24:31;;;;;;;85.63;21.17;;;2.00;99.90;;;;;;6371239;22;20021;-85
2023/01/03 10:27:12;;;;;;;67.72;21.90;;;2.50;99.90;;;;;;6396652;22;20042;-86
2023/01/03 10:29:38;;;;;;;77.78;22.33;;;2.20;99.90;;;;;;6372279;22;20370;-86
2023/01/03 10:32:25;;;;;;;75.88;24.42;;;2.20;99.90;;;;;;6370046;22;20021;-86
2023/01/03 10:35:22;;;;;;;76.25;24.15;;;2.40;99.90;;;;;;6397731;22;20487;-86
2023/01/03 10:37:51;;;;;;;107.60;27.20;;;2.40;99.90;;;;;;6397555;22;20024;-86
2023/01/03 10:40:17;;;;;;;97.15;25.45;;;2.50;99.90;;;;;;6397395;22;20018;-86
2023/01/03 10:42:44;;;;;;;101.50;25.05;;;3.20;99.90;;;;;;6371299;22;20046;-86
2023/01/03 10:45:16;;;;;;;75.63;24.95;;;2.70;99.90;;;;;;6372990;22;20146;-86
2023/01/03 10:47:42;;;;;;;104.53;26.83;;;2.70;99.90;;;;;;6399807;22;20028;-85
2023/01/03 10:50:20;;;;;;;119.97;29.40;;;2.90;99.90;;;;;;6400348;22;20608;-86
2023/01/03 10:52:49;;;;;;;71.45;27.13;;;2.90;99.90;;;;;;6398988;22;20032;-87
2023/01/03 10:55:17;;;;;;;54.53;26.88;;;3.00;99.90;;;;;;6400010;22;20013;-86
2023/01/03 10:57:59;;;;;;;73.55;29.85;;;3.30;99.90;;;;;;6399558;22;20410;-86
2023/01/03 11:00:29;;;;;;;87.68;31.27;;;3.20;99.90;;;;;;6400132;22;20382;-84
2023/01/03 11:03:01;;;;;;;91.13;33.22;;;3.40;99.90;;;;;;6373205;22;20021;-86
2023/01/03 11:05:27;;;;;;;79.90;33.07;;;3.30;99.90;;;;;;6374730;22;20010;-86
2023/01/03 11:07:56;;;;;;;70.70;32.72;;;3.50;99.90;;;;;;6372123;22;20661;-86
2023/01/03 11:10:25;;;;;;;78.60;35.17;;;3.50;99.90;;;;;;6400675;22;20013;-87
2023/01/03 11:12:51;;;;;;;76.28;34.45;;;4.00;99.90;;;;;;6371802;22;20065;-87
2023/01/03 11:15:22;;;;;;;86.93;35.92;;;4.10;99.90;;;;;;6399710;22;20013;-87
2023/01/03 11:17:53;;;;;;;85.22;36.85;;;3.80;99.90;;;;;;6372734;22;20021;-85
2023/01/03 11:20:19;;;;;;;90.45;37.80;;;3.90;99.90;;;;;;6373485;22;20017;-87
2023/01/03 11:22:51;;;;;;;92.88;36.75;;;3.90;99.90;;;;;;6399657;22;20013;-84
2023/01/03 11:25:23;;;;;;;94.15;38.22;;;4.60;99.90;;;;;;6400352;22;20017;-88
2023/01/03 11:28:09;;;;;;;93.43;38.53;;;4.20;99.90;;;;;;6399077;22;20009;-87
2023/01/03 11:30:52;;;;;;;102.65;42.72;;;4.30;99.90;;;;;;6400879;22;20082;-88
2023/01/03 11:33:40;;;;;;;102.00;42.65;;;4.30;99.90;;;;;;6373998;22;20009;-88
2023/01/03 11:36:21;;;;;;;101.15;41.78;;;4.60;99.90;;;;;;6371832;22;20345;-87
2023/01/03 11:39:07;;;;;;;85.53;38.53;;;4.70;99.90;;;;;;6372799;22;20018;-87
2023/01/03 11:41:46;;;;;;;93.22;39.05;;;4.60;99.90;;;;;;6372650;22;20113;-87
2023/01/03 11:44:27;;;;;;;90.18;38.15;;;4.70;99.90;;;;;;6373613;22;20013;-88
2023/01/03 11:47:32;;;;;;;89.65;39.03;;;4.80;99.90;;;;;;6399517;22;20022;-87
2023/01/03 11:50:10;;;;;;;82.30;38.25;;;4.70;99.90;;;;;;6372240;22;20516;-88
2023/01/03 11:52:45;;;;;;;81.60;37.65;;;4.90;99.90;;;;;;6399872;22;20013;-87
2023/01/03 11:55:32;;;;;;;78.93;37.17;;;4.90;99.90;;;;;;6373583;22;20013;-88
2023/01/03 11:58:25;;;;;;;85.43;37.38;;;5.00;99.90;;;;;;6371915;22;20017;-88
2023/01/03 12:01:24;;;;;;;74.50;35.70;;;5.10;99.90;;;;;;6399902;22;20017;-88
2023/01/03 12:03:55;;;;;;;77.07;36.25;;;5.10;99.90;;;;;;6372356;22;20020;-88
2023/01/03 12:06:26;;;;;;;78.85;36.28;;;5.00;99.90;;;;;;6373674;22;20018;-87
2023/01/03 12:09:03;;;;;;;81.20;36.50;;;5.00;99.90;;;;;;6372485;22;20039;-87
2023/01/03 12:11:49;;;;;;;77.15;35.95;;;5.40;99.90;;;;;;6373273;22;20014;-87
2023/01/03 12:14:26;;;;;;;74.93;36.00;;;5.20;99.90;;;;;;6373603;22;20021;-86
2023/01/03 12:17:00;;;;;;;79.75;36.60;;;5.10;99.90;;;;;;6372412;22;20010;-87
2023/01/03 12:19:30;;;;;;;76.43;36.42;;;5.70;99.90;;;;;;6399336;22;20013;-86
2023/01/03 12:22:02;;;;;;;85.10;37.97;;;5.80;99.90;;;;;;6372626;22;20009;-87
2023/01/03 12:24:43;;;;;;;75.57;35.97;;;5.30;99.90;;;;;;6398943;22;20419;-86
2023/01/03 12:27:16;;;;;;;90.15;36.88;;;5.60;99.90;;;;;;6372127;22;20141;-87
2023/01/03 12:29:59;;;;;;;74.10;35.47;;;5.30;99.90;;;;;;6399443;22;20438;-87
2023/01/03 12:32:33;;;;;;;79.25;36.65;;;5.30;99.90;;;;;;6399618;22;20444;-88
2023/01/03 12:35:09;;;;;;;81.25;37.20;;;5.40;99.90;;;;;;6372813;22;20383;-88
2023/01/03 12:37:38;;;;;;;92.18;37.83;;;5.40;99.90;;;;;;6399435;22;20017;-87
2023/01/03 12:40:25;;;;;;;76.55;37.13;;;5.90;99.90;;;;;;6398948;22;20061;-87
2023/01/03 12:43:11;;;;;;;87.80;37.63;;;5.40;99.90;;;;;;6371680;22;20013;-88
2023/01/03 12:45:40;;;;;;;83.40;37.38;;;5.40;99.90;;;;;;6373219;22;20045;-88
2023/01/03 12:48:10;;;;;;;80.38;36.53;;;5.40;99.90;;;;;;6399255;22;20445;-87
2023/01/03 12:50:45;;;;;;;76.88;34.83;;;5.50;99.90;;;;;;6373478;22;20021;-87
2023/01/03 12:53:20;;;;;;;74.25;33.33;;;5.60;99.90;;;;;;6398499;22;20018;-87
2023/01/03 12:56:13;;;;;;;69.97;33.35;;;5.50;99.90;;;;;;6372466;22;20032;-87
2023/01/03 12:58:52;;;;;;;73.30;33.30;;;5.50;99.90;;;;;;6398784;22;20036;-87
2023/01/03 13:01:33;;;;;;;65.90;30.95;;;5.90;99.90;;;;;;6399923;22;20018;-87
2023/01/03 13:04:06;;;;;;;69.00;33.50;;;5.60;99.90;;;;;;6398028;22;20428;-86
2023/01/03 13:06:37;;;;;;;72.43;31.70;;;5.60;99.90;;;;;;6371988;22;20010;-86
2023/01/03 13:09:07;;;;;;;66.53;30.90;;;5.70;99.90;;;;;;6371564;22;20792;-86
2023/01/03 13:11:40;;;;;;;68.68;31.25;;;6.00;99.90;;;;;;6372793;22;20013;-86
2023/01/03 13:14:17;;;;;;;63.67;30.45;;;5.60;99.90;;;;;;6396993;22;20017;-86
2023/01/03 13:16:47;;;;;;;64.95;30.40;;;5.80;99.90;;;;;;6372504;22;20500;-87
2023/01/03 13:19:19;;;;;;;59.22;29.13;;;5.80;99.90;;;;;;6372307;22;20013;-87
2023/01/03 13:22:17;;;;;;;55.00;27.50;;;5.80;99.90;;;;;;6371368;22;20025;-86
2023/01/03 13:24:45;;;;;;;53.67;26.52;;;5.80;99.90;;;;;;6398514;22;20053;-86
2023/01/03 13:27:32;;;;;;;54.25;25.58;;;5.90;99.90;;;;;;6371391;22;20096;-87
2023/01/03 13:29:58;;;;;;;47.30;26.08;;;5.80;99.90;;;;;;6372333;22;20092;-87
2023/01/03 13:32:27;;;;;;;48.38;23.35;;;6.80;99.90;;;;;;6398423;22;20058;-87
2023/01/03 13:34:54;;;;;;;43.78;23.60;;;5.90;99.90;;;;;;6370626;22;20096;-87
2023/01/03 13:37:23;;;;;;;49.92;23.20;;;6.00;99.90;;;;;;6371965;22;20017;-87
2023/01/03 13:39:48;;;;;;;44.65;21.75;;;6.00;99.90;;;;;;6398268;22;20025;-87
2023/01/03 13:42:22;;;;;;;45.00;21.25;;;6.30;99.90;;;;;;6370014;22;20345;-87
2023/01/03 13:44:49;;;;;;;39.90;22.63;;;6.10;99.90;;;;;;6398302;22;20088;-87
2023/01/03 13:47:34;;;;;;;40.95;21.50;;;6.00;99.90;;;;;;6371849;22;20045;-86
2023/01/03 13:50:01;;;;;;;38.88;20.55;;;6.10;99.90;;;;;;6370971;22;20302;-87
2023/01/03 13:52:37;;;;;;;42.33;21.40;;;6.20;99.90;;;;;;6372379;22;20015;-87
2023/01/03 13:55:03;;;;;;;44.45;21.42;;;6.10;99.90;;;;;;6397208;22;20021;-87
2023/01/03 13:57:35;;;;;;;40.55;22.08;;;6.00;99.90;;;;;;6397094;22;20398;-87
2023/01/03 14:00:11;;;;;;;42.20;21.15;;;6.10;99.90;;;;;;6371556;22;20029;-87
2023/01/03 14:02:59;;;;;;;42.67;21.60;;;6.20;99.90;;;;;;6397624;22;20012;-87
2023/01/03 14:05:52;;;;;;;42.92;22.58;;;6.10;99.90;;;;;;6398929;22;20013;-87